createdAt,value
2016-07-05T00:00:14.693Z,0
2016-07-05T00:01:14.752Z,0
2016-07-05T00:02:14.762Z,0
2016-07-05T00:03:14.749Z,0
2016-07-05T00:04:14.742Z,0
2016-07-05T00:05:14.754Z,0
2016-07-05T00:06:14.796Z,0
2016-07-05T00:07:14.810Z,0
2016-07-05T00:08:14.824Z,0
2016-07-05T00:09:14.828Z,0
2016-07-05T00:10:14.821Z,0
2016-07-05T00:11:14.817Z,0
2016-07-05T00:12:14.844Z,0
2016-07-05T00:13:14.838Z,0
2016-07-05T00:14:14.880Z,0
2016-07-05T00:15:14.854Z,0
2016-07-05T00:16:14.877Z,0
2016-07-05T00:17:14.873Z,0
2016-07-05T00:18:14.908Z,0
2016-07-05T00:19:14.915Z,0
2016-07-05T00:20:14.883Z,0
2016-07-05T00:21:14.909Z,0
2016-07-05T00:22:14.941Z,0
2016-07-05T00:23:14.955Z,0
2016-07-05T00:24:14.977Z,0
2016-07-05T00:25:15.016Z,0
2016-07-05T00:26:14.963Z,0
2016-07-05T00:27:14.949Z,0
2016-07-05T00:28:14.935Z,0
2016-07-05T00:29:15.051Z,0
2016-07-05T00:30:14.946Z,0
2016-07-05T00:31:14.976Z,0
2016-07-05T00:32:15.010Z,0
2016-07-05T00:33:15.006Z,0
2016-07-05T00:34:15.040Z,0
2016-07-05T00:35:15.083Z,0
2016-07-05T00:36:15.077Z,0
2016-07-05T00:37:15.071Z,0
2016-07-05T00:38:15.071Z,0
2016-07-05T00:39:15.101Z,0
2016-07-05T00:40:15.079Z,0
2016-07-05T00:41:15.106Z,0
2016-07-05T00:42:15.093Z,0
2016-07-05T00:43:15.095Z,0
2016-07-05T00:44:15.129Z,0
2016-07-05T00:45:15.132Z,0
2016-07-05T00:46:15.150Z,0
2016-07-05T00:47:15.167Z,0
2016-07-05T00:48:15.150Z,0
2016-07-05T00:49:15.155Z,0
2016-07-05T00:50:15.163Z,0
2016-07-05T00:51:15.184Z,0
2016-07-05T00:52:15.211Z,0
2016-07-05T00:53:15.182Z,0
2016-07-05T00:54:15.221Z,0
2016-07-05T00:55:15.220Z,0
2016-07-05T00:56:15.267Z,0
2016-07-05T00:57:15.243Z,0
2016-07-05T00:58:15.254Z,0
2016-07-05T00:59:16.470Z,0
2016-07-05T01:00:15.261Z,0
2016-07-05T01:01:15.261Z,0
2016-07-05T01:02:15.268Z,0
2016-07-05T01:03:15.301Z,0
2016-07-05T01:04:15.277Z,0
2016-07-05T01:05:15.319Z,0
2016-07-05T01:06:15.313Z,0
2016-07-05T01:07:15.305Z,0
2016-07-05T01:08:15.327Z,0
2016-07-05T01:09:15.346Z,0
2016-07-05T01:10:15.358Z,0
2016-07-05T01:11:15.350Z,0
2016-07-05T01:12:15.364Z,0
2016-07-05T01:13:15.371Z,0
2016-07-05T01:14:15.372Z,0
2016-07-05T01:15:15.355Z,0
2016-07-05T01:16:15.408Z,0
2016-07-05T01:17:15.421Z,0
2016-07-05T01:18:15.410Z,0
2016-07-05T01:19:15.444Z,0
2016-07-05T01:20:15.440Z,0
2016-07-05T01:21:15.482Z,0
2016-07-05T01:22:15.444Z,0
2016-07-05T01:23:15.471Z,0
2016-07-05T01:24:15.509Z,0
2016-07-05T01:25:15.500Z,0
2016-07-05T01:26:15.500Z,0
2016-07-05T01:27:15.514Z,0
2016-07-05T01:28:15.527Z,0
2016-07-05T01:29:15.596Z,0
2016-07-05T01:30:15.527Z,0
2016-07-05T01:31:15.555Z,0
2016-07-05T01:32:15.525Z,0
2016-07-05T01:33:15.525Z,0
2016-07-05T01:34:15.548Z,0
2016-07-05T01:35:15.553Z,0
2016-07-05T01:36:15.573Z,0
2016-07-05T01:37:15.614Z,0
2016-07-05T01:38:15.614Z,0
2016-07-05T01:39:15.598Z,0
2016-07-05T01:40:15.606Z,0
2016-07-05T01:41:15.622Z,0
2016-07-05T01:42:15.647Z,0
2016-07-05T01:43:16.265Z,0
2016-07-05T01:44:15.647Z,0
2016-07-05T01:45:15.638Z,0
2016-07-05T01:46:15.682Z,0
2016-07-05T01:47:15.678Z,0
2016-07-05T01:48:15.714Z,0
2016-07-05T01:49:15.675Z,0
2016-07-05T01:50:15.725Z,0
2016-07-05T01:51:15.703Z,0
2016-07-05T01:52:15.694Z,0
2016-07-05T01:53:15.746Z,0
2016-07-05T01:54:15.729Z,0
2016-07-05T01:55:15.771Z,0
2016-07-05T01:56:15.782Z,0
2016-07-05T01:57:15.744Z,0
2016-07-05T01:58:15.760Z,0
2016-07-05T01:59:15.824Z,0
2016-07-05T02:00:15.922Z,0
2016-07-05T02:01:16.147Z,0
2016-07-05T02:02:16.144Z,0
2016-07-05T02:03:16.180Z,0
2016-07-05T02:04:15.913Z,0
2016-07-05T02:05:16.101Z,0
2016-07-05T02:06:16.279Z,0
2016-07-05T02:07:16.234Z,0
2016-07-05T02:08:16.249Z,0
2016-07-05T02:09:16.142Z,0
2016-07-05T02:10:15.877Z,0
2016-07-05T02:11:15.890Z,0
2016-07-05T02:12:15.920Z,0
2016-07-05T02:13:15.897Z,0
2016-07-05T02:14:15.920Z,0
2016-07-05T02:15:15.906Z,0
2016-07-05T02:16:15.926Z,0
2016-07-05T02:17:15.948Z,0
2016-07-05T02:18:15.988Z,0
2016-07-05T02:19:15.958Z,0
2016-07-05T02:20:16.601Z,0
2016-07-05T02:21:16.004Z,0
2016-07-05T02:22:15.960Z,0
2016-07-05T02:23:15.981Z,0
2016-07-05T02:24:16.047Z,0
2016-07-05T02:25:16.005Z,0
2016-07-05T02:26:16.039Z,0
2016-07-05T02:27:15.988Z,0
2016-07-05T02:28:16.053Z,0
2016-07-05T02:29:16.132Z,0
2016-07-05T02:30:16.043Z,0
2016-07-05T02:31:16.036Z,0
2016-07-05T02:32:16.060Z,0
2016-07-05T02:33:16.058Z,0
2016-07-05T02:34:16.057Z,0
2016-07-05T02:35:16.062Z,0
2016-07-05T02:36:16.125Z,0
2016-07-05T02:37:16.103Z,0
2016-07-05T02:38:16.096Z,0
2016-07-05T02:39:16.128Z,0
2016-07-05T02:40:16.166Z,0
2016-07-05T02:41:16.161Z,0
2016-07-05T02:42:16.171Z,0
2016-07-05T02:43:16.190Z,0
2016-07-05T02:44:16.178Z,0
2016-07-05T02:45:16.187Z,0
2016-07-05T02:46:16.217Z,0
2016-07-05T02:47:16.199Z,0
2016-07-05T02:48:16.236Z,0
2016-07-05T02:49:16.168Z,0
2016-07-05T02:50:16.236Z,0
2016-07-05T02:51:16.205Z,0
2016-07-05T02:52:16.218Z,0
2016-07-05T02:53:16.284Z,0
2016-07-05T02:54:16.291Z,0
2016-07-05T02:55:16.269Z,0
2016-07-05T02:56:16.316Z,0
2016-07-05T02:57:16.295Z,0
2016-07-05T02:58:16.271Z,0
2016-07-05T02:59:16.282Z,0
2016-07-05T03:00:16.290Z,0
2016-07-05T03:01:16.282Z,0
2016-07-05T03:02:16.335Z,0
2016-07-05T03:03:16.313Z,0
2016-07-05T03:04:16.347Z,0
2016-07-05T03:05:16.368Z,0
2016-07-05T03:06:16.378Z,0
2016-07-05T03:07:16.346Z,0
2016-07-05T03:08:16.388Z,0
2016-07-05T03:09:16.403Z,0
2016-07-05T03:10:16.402Z,0
2016-07-05T03:11:16.402Z,0
2016-07-05T03:12:16.414Z,0
2016-07-05T03:13:16.437Z,0
2016-07-05T03:14:16.474Z,0
2016-07-05T03:15:16.471Z,0
2016-07-05T03:16:16.454Z,0
2016-07-05T03:17:16.462Z,0
2016-07-05T03:18:16.490Z,0
2016-07-05T03:19:16.462Z,0
2016-07-05T03:20:16.494Z,0
2016-07-05T03:21:16.475Z,0
2016-07-05T03:22:16.525Z,0
2016-07-05T03:23:16.541Z,0
2016-07-05T03:24:16.537Z,0
2016-07-05T03:25:16.554Z,0
2016-07-05T03:26:16.553Z,0
2016-07-05T03:27:16.580Z,0
2016-07-05T03:28:16.546Z,0
2016-07-05T03:29:16.575Z,0
2016-07-05T03:30:16.552Z,0
2016-07-05T03:31:16.617Z,0
2016-07-05T03:32:16.597Z,0
2016-07-05T03:33:16.639Z,0
2016-07-05T03:34:16.629Z,0
2016-07-05T03:35:16.597Z,0
2016-07-05T03:36:16.635Z,0
2016-07-05T03:37:16.638Z,0
2016-07-05T03:38:16.651Z,0
2016-07-05T03:39:16.659Z,0
2016-07-05T03:40:16.662Z,0
2016-07-05T03:41:16.668Z,0
2016-07-05T03:42:16.677Z,0
2016-07-05T03:43:16.691Z,0
2016-07-05T03:44:16.691Z,0
2016-07-05T03:45:16.698Z,0
2016-07-05T03:46:16.732Z,0
2016-07-05T03:47:16.727Z,0
2016-07-05T03:48:16.708Z,0
2016-07-05T03:49:16.748Z,0
2016-07-05T03:50:16.771Z,0
2016-07-05T03:51:16.774Z,0
2016-07-05T03:52:17.365Z,0
2016-07-05T03:53:16.778Z,0
2016-07-05T03:54:16.825Z,0
2016-07-05T03:55:16.820Z,0
2016-07-05T03:56:16.818Z,5
2016-07-05T03:57:16.794Z,5
2016-07-05T03:58:16.831Z,5
2016-07-05T03:59:16.840Z,5
2016-07-05T04:00:16.867Z,5
2016-07-05T04:01:16.873Z,5
2016-07-05T04:02:16.906Z,5
2016-07-05T04:03:16.865Z,5
2016-07-05T04:04:16.891Z,5
2016-07-05T04:05:16.874Z,5
2016-07-05T04:06:16.933Z,5
2016-07-05T04:07:16.933Z,5
2016-07-05T04:08:16.919Z,5
2016-07-05T04:09:16.954Z,5
2016-07-05T04:10:16.937Z,5
2016-07-05T04:11:16.923Z,10
2016-07-05T04:12:16.988Z,10
2016-07-05T04:13:16.959Z,10
2016-07-05T04:14:16.974Z,10
2016-07-05T04:15:16.960Z,10
2016-07-05T04:16:16.963Z,10
2016-07-05T04:17:17.008Z,10
2016-07-05T04:18:17.007Z,10
2016-07-05T04:19:17.031Z,10
2016-07-05T04:20:16.984Z,10
2016-07-05T04:21:17.041Z,10
2016-07-05T04:22:17.059Z,10
2016-07-05T04:23:17.054Z,10
2016-07-05T04:24:17.060Z,10
2016-07-05T04:25:17.064Z,15
2016-07-05T04:26:17.074Z,15
2016-07-05T04:27:17.098Z,15
2016-07-05T04:28:17.079Z,15
2016-07-05T04:29:17.105Z,15
2016-07-05T04:30:17.089Z,15
2016-07-05T04:31:17.146Z,15
2016-07-05T04:32:17.125Z,15
2016-07-05T04:33:17.132Z,15
2016-07-05T04:34:17.136Z,15
2016-07-05T04:35:17.132Z,15
2016-07-05T04:36:17.154Z,15
2016-07-05T04:37:17.113Z,15
2016-07-05T04:38:17.189Z,15
2016-07-05T04:39:17.210Z,15
2016-07-05T04:40:17.196Z,15
2016-07-05T04:41:17.185Z,15
2016-07-05T04:42:17.202Z,15
2016-07-05T04:43:17.208Z,15
2016-07-05T04:44:17.238Z,15
2016-07-05T04:45:17.271Z,15
2016-07-05T04:46:17.278Z,15
2016-07-05T04:47:17.287Z,15
2016-07-05T04:48:17.906Z,15
2016-07-05T04:49:17.256Z,15
2016-07-05T04:50:17.280Z,15
2016-07-05T04:51:17.279Z,15
2016-07-05T04:52:17.278Z,15
2016-07-05T04:53:17.272Z,15
2016-07-05T04:54:17.315Z,15
2016-07-05T04:55:17.337Z,15
2016-07-05T04:56:17.362Z,15
2016-07-05T04:57:17.338Z,15
2016-07-05T04:58:17.350Z,15
2016-07-05T04:59:17.370Z,15
2016-07-05T05:00:17.346Z,15
2016-07-05T05:01:17.374Z,15
2016-07-05T05:02:17.410Z,15
2016-07-05T05:03:17.412Z,15
2016-07-05T05:04:17.407Z,15
2016-07-05T05:05:17.427Z,15
2016-07-05T05:06:17.457Z,15
2016-07-05T05:07:17.423Z,15
2016-07-05T05:08:17.436Z,15
2016-07-05T05:09:17.479Z,15
2016-07-05T05:10:17.486Z,15
2016-07-05T05:11:17.437Z,15
2016-07-05T05:12:17.484Z,15
2016-07-05T05:13:17.491Z,15
2016-07-05T05:14:17.500Z,15
2016-07-05T05:15:17.516Z,15
2016-07-05T05:16:17.541Z,15
2016-07-05T05:17:17.529Z,15
2016-07-05T05:18:17.532Z,15
2016-07-05T05:19:17.567Z,15
2016-07-05T05:20:17.568Z,15
2016-07-05T05:21:17.544Z,15
2016-07-05T05:22:17.561Z,15
2016-07-05T05:23:17.575Z,15
2016-07-05T05:24:18.309Z,15
2016-07-05T05:25:17.581Z,15
2016-07-05T05:26:17.592Z,15
2016-07-05T05:27:17.644Z,15
2016-07-05T05:28:17.656Z,15
2016-07-05T05:29:17.668Z,15
2016-07-05T05:30:17.639Z,15
2016-07-05T05:31:17.652Z,15
2016-07-05T05:32:17.665Z,15
2016-07-05T05:33:17.657Z,15
2016-07-05T05:34:17.667Z,15
2016-07-05T05:35:17.650Z,15
2016-07-05T05:36:17.690Z,15
2016-07-05T05:37:17.688Z,15
2016-07-05T05:38:17.695Z,15
2016-07-05T05:39:17.718Z,15
2016-07-05T05:40:17.724Z,15
2016-07-05T05:41:17.706Z,15
2016-07-05T05:42:17.746Z,15
2016-07-05T05:43:17.785Z,15
2016-07-05T05:44:17.754Z,15
2016-07-05T05:45:17.803Z,15
2016-07-05T05:46:17.817Z,15
2016-07-05T05:47:17.761Z,15
2016-07-05T05:48:17.773Z,15
2016-07-05T05:49:17.791Z,15
2016-07-05T05:50:17.809Z,15
2016-07-05T05:51:17.821Z,15
2016-07-05T05:52:17.838Z,15
2016-07-05T05:53:17.836Z,15
2016-07-05T05:54:17.887Z,15
2016-07-05T05:55:17.878Z,15
2016-07-05T05:56:17.878Z,15
2016-07-05T05:57:17.874Z,15
2016-07-05T05:58:17.871Z,15
2016-07-05T05:59:17.863Z,15
2016-07-05T06:00:17.912Z,15
2016-07-05T06:01:17.918Z,15
2016-07-05T06:02:17.954Z,15
2016-07-05T06:03:17.949Z,15
2016-07-05T06:04:17.972Z,15
2016-07-05T06:05:17.946Z,15
2016-07-05T06:06:17.985Z,15
2016-07-05T06:07:17.975Z,15
2016-07-05T06:08:17.957Z,15
2016-07-05T06:09:17.998Z,15
2016-07-05T06:10:18.591Z,15
2016-07-05T06:11:18.613Z,15
2016-07-05T06:12:18.014Z,15
2016-07-05T06:13:18.049Z,15
2016-07-05T06:14:18.046Z,15
2016-07-05T06:15:18.058Z,15
2016-07-05T06:16:18.617Z,15
2016-07-05T06:17:18.054Z,15
2016-07-05T06:18:18.048Z,15
2016-07-05T06:19:18.054Z,15
2016-07-05T06:20:18.093Z,15
2016-07-05T06:21:18.096Z,15
2016-07-05T06:22:18.057Z,15
2016-07-05T06:23:18.095Z,15
2016-07-05T06:24:18.136Z,15
2016-07-05T06:25:18.125Z,15
2016-07-05T06:26:18.126Z,15
2016-07-05T06:27:18.115Z,15
2016-07-05T06:28:18.118Z,15
2016-07-05T06:29:18.166Z,15
2016-07-05T06:30:18.144Z,15
2016-07-05T06:31:18.154Z,15
2016-07-05T06:32:18.199Z,15
2016-07-05T06:33:18.179Z,15
2016-07-05T06:34:18.180Z,15
2016-07-05T06:35:18.192Z,15
2016-07-05T06:36:18.200Z,15
2016-07-05T06:37:18.225Z,15
2016-07-05T06:38:18.244Z,15
2016-07-05T06:39:18.224Z,15
2016-07-05T06:40:18.236Z,15
2016-07-05T06:41:18.233Z,15
2016-07-05T06:42:18.254Z,15
2016-07-05T06:43:18.234Z,15
2016-07-05T06:44:18.278Z,15
2016-07-05T06:45:18.296Z,15
2016-07-05T06:46:18.308Z,15
2016-07-05T06:47:18.299Z,20
2016-07-05T06:48:18.285Z,15
2016-07-05T06:49:18.319Z,20
2016-07-05T06:50:18.319Z,20
2016-07-05T06:51:18.331Z,20
2016-07-05T06:52:18.334Z,20
2016-07-05T06:53:18.335Z,20
2016-07-05T06:54:18.976Z,20
2016-07-05T06:55:18.358Z,15
2016-07-05T06:56:18.385Z,15
2016-07-05T06:57:18.380Z,15
2016-07-05T06:58:18.383Z,15
2016-07-05T06:59:18.392Z,20
2016-07-05T07:00:18.449Z,15
2016-07-05T07:01:18.451Z,20
2016-07-05T07:02:18.410Z,20
2016-07-05T07:03:18.441Z,20
2016-07-05T07:04:18.413Z,25
2016-07-05T07:05:18.467Z,25
2016-07-05T07:06:18.453Z,25
2016-07-05T07:07:18.478Z,25
2016-07-05T07:08:18.494Z,25
2016-07-05T07:09:18.530Z,20
2016-07-05T07:10:18.542Z,20
2016-07-05T07:11:18.540Z,20
2016-07-05T07:12:18.560Z,20
2016-07-05T07:13:18.581Z,20
2016-07-05T07:14:18.544Z,15
2016-07-05T07:15:18.569Z,20
2016-07-05T07:16:18.569Z,20
2016-07-05T07:17:18.584Z,20
2016-07-05T07:18:18.567Z,20
2016-07-05T07:19:18.613Z,15
2016-07-05T07:20:18.643Z,15
2016-07-05T07:21:18.612Z,20
2016-07-05T07:22:18.611Z,20
2016-07-05T07:23:18.610Z,20
2016-07-05T07:24:18.685Z,20
2016-07-05T07:25:18.613Z,20
2016-07-05T07:26:18.639Z,20
2016-07-05T07:27:18.668Z,25
2016-07-05T07:28:18.683Z,25
2016-07-05T07:29:18.722Z,25
2016-07-05T07:30:18.693Z,25
2016-07-05T07:31:19.307Z,25
2016-07-05T07:32:18.722Z,25
2016-07-05T07:33:18.718Z,25
2016-07-05T07:34:18.730Z,25
2016-07-05T07:35:18.751Z,25
2016-07-05T07:36:19.372Z,20
2016-07-05T07:37:19.384Z,20
2016-07-05T07:38:18.787Z,20
2016-07-05T07:39:18.792Z,20
2016-07-05T07:40:18.808Z,20
2016-07-05T07:41:18.836Z,20
2016-07-05T07:42:18.810Z,20
2016-07-05T07:43:18.830Z,20
2016-07-05T07:44:18.835Z,20
2016-07-05T07:45:18.862Z,20
2016-07-05T07:46:18.869Z,20
2016-07-05T07:47:18.846Z,20
2016-07-05T07:48:18.884Z,20
2016-07-05T07:49:18.905Z,20
2016-07-05T07:50:18.873Z,20
2016-07-05T07:51:18.925Z,20
2016-07-05T07:52:18.943Z,20
2016-07-05T07:53:18.932Z,20
2016-07-05T07:54:18.915Z,20
2016-07-05T07:55:18.930Z,20
2016-07-05T07:56:18.949Z,20
2016-07-05T07:57:18.973Z,25
2016-07-05T07:58:18.970Z,25
2016-07-05T07:59:18.978Z,25
2016-07-05T08:00:19.001Z,25
2016-07-05T08:01:19.004Z,25
2016-07-05T08:02:19.029Z,25
2016-07-05T08:03:19.014Z,25
2016-07-05T08:04:18.990Z,25
2016-07-05T08:05:19.033Z,25
2016-07-05T08:06:19.044Z,25
2016-07-05T08:07:19.049Z,25
2016-07-05T08:08:19.078Z,25
2016-07-05T08:09:19.083Z,25
2016-07-05T08:10:19.048Z,25
2016-07-05T08:11:19.088Z,20
2016-07-05T08:12:19.097Z,25
2016-07-05T08:13:19.112Z,25
2016-07-05T08:14:19.064Z,25
2016-07-05T08:15:19.126Z,25
2016-07-05T08:16:19.137Z,25
2016-07-05T08:17:19.151Z,25
2016-07-05T08:18:19.140Z,25
2016-07-05T08:19:19.167Z,25
2016-07-05T08:20:19.166Z,25
2016-07-05T08:21:19.171Z,25
2016-07-05T08:22:19.193Z,30
2016-07-05T08:23:19.175Z,30
2016-07-05T08:24:19.209Z,35
2016-07-05T08:25:19.211Z,40
2016-07-05T08:26:19.221Z,40
2016-07-05T08:27:19.851Z,45
2016-07-05T08:28:19.249Z,45
2016-07-05T08:29:19.255Z,45
2016-07-05T08:30:19.250Z,40
2016-07-05T08:31:19.282Z,45
2016-07-05T08:32:19.285Z,30
2016-07-05T08:33:19.292Z,30
2016-07-05T08:34:19.294Z,35
2016-07-05T08:35:19.321Z,30
2016-07-05T08:36:19.332Z,30
2016-07-05T08:37:19.342Z,30
2016-07-05T08:38:19.363Z,30
2016-07-05T08:39:19.436Z,30
2016-07-05T08:40:19.376Z,30
2016-07-05T08:41:19.998Z,30
2016-07-05T08:42:19.411Z,30
2016-07-05T08:43:19.414Z,30
2016-07-05T08:44:19.424Z,30
2016-07-05T08:45:20.054Z,30
2016-07-05T08:46:19.473Z,30
2016-07-05T08:47:19.458Z,30
2016-07-05T08:48:19.432Z,30
2016-07-05T08:49:19.443Z,30
2016-07-05T08:50:19.428Z,30
2016-07-05T08:51:20.082Z,30
2016-07-05T08:52:19.480Z,30
2016-07-05T08:53:19.510Z,30
2016-07-05T08:54:19.526Z,30
2016-07-05T08:55:19.581Z,30
2016-07-05T08:56:19.504Z,30
2016-07-05T08:57:20.140Z,30
2016-07-05T08:58:19.547Z,35
2016-07-05T08:59:19.570Z,35
2016-07-05T09:00:19.584Z,30
2016-07-05T09:01:19.584Z,30
2016-07-05T09:02:20.168Z,30
2016-07-05T09:03:19.577Z,30
2016-07-05T09:04:19.656Z,30
2016-07-05T09:05:19.655Z,30
2016-07-05T09:06:19.622Z,35
2016-07-05T09:07:19.617Z,35
2016-07-05T09:08:19.680Z,30
2016-07-05T09:09:20.288Z,35
2016-07-05T09:10:19.633Z,35
2016-07-05T09:11:19.631Z,35
2016-07-05T09:12:19.673Z,35
2016-07-05T09:13:19.726Z,35
2016-07-05T09:14:19.695Z,35
2016-07-05T09:15:19.707Z,35
2016-07-05T09:16:19.686Z,35
2016-07-05T09:17:19.730Z,35
2016-07-05T09:18:19.776Z,35
2016-07-05T09:19:19.732Z,35
2016-07-05T09:20:19.696Z,35
2016-07-05T09:21:19.739Z,35
2016-07-05T09:22:19.758Z,40
2016-07-05T09:23:20.413Z,40
2016-07-05T09:24:19.776Z,35
2016-07-05T09:25:20.408Z,35
2016-07-05T09:26:19.780Z,40
2016-07-05T09:27:19.802Z,40
2016-07-05T09:28:19.804Z,35
2016-07-05T09:29:19.833Z,40
2016-07-05T09:30:19.832Z,40
2016-07-05T09:31:19.850Z,40
2016-07-05T09:32:19.858Z,40
2016-07-05T09:33:19.862Z,40
2016-07-05T09:34:20.517Z,25
2016-07-05T09:35:19.886Z,25
2016-07-05T09:36:19.873Z,25
2016-07-05T09:37:19.891Z,40
2016-07-05T09:38:19.917Z,40
2016-07-05T09:39:19.920Z,25
2016-07-05T09:40:19.933Z,40
2016-07-05T09:41:19.934Z,40
2016-07-05T09:42:19.943Z,40
2016-07-05T09:43:19.972Z,40
2016-07-05T09:44:19.966Z,40
2016-07-05T09:45:19.995Z,35
2016-07-05T09:46:19.989Z,40
2016-07-05T09:47:20.012Z,45
2016-07-05T09:48:20.010Z,45
2016-07-05T09:49:20.054Z,40
2016-07-05T09:50:20.031Z,40
2016-07-05T09:51:20.040Z,40
2016-07-05T09:52:20.037Z,50
2016-07-05T09:53:20.076Z,35
2016-07-05T09:54:20.092Z,45
2016-07-05T09:55:20.066Z,45
2016-07-05T09:56:20.098Z,45
2016-07-05T09:57:20.109Z,50
2016-07-05T09:58:20.092Z,40
2016-07-05T09:59:20.102Z,45
2016-07-05T10:00:20.112Z,40
2016-07-05T10:01:20.131Z,45
2016-07-05T10:02:20.135Z,45
2016-07-05T10:03:20.112Z,40
2016-07-05T10:04:20.142Z,50
2016-07-05T10:05:20.177Z,60
2016-07-05T10:06:20.169Z,70
2016-07-05T10:07:20.177Z,65
2016-07-05T10:08:20.200Z,75
2016-07-05T10:09:20.206Z,65
2016-07-05T10:10:20.252Z,70
2016-07-05T10:11:20.228Z,65
2016-07-05T10:12:20.222Z,50
2016-07-05T10:13:20.240Z,30
2016-07-05T10:14:20.255Z,55
2016-07-05T10:15:20.254Z,55
2016-07-05T10:16:20.286Z,55
2016-07-05T10:17:20.288Z,55
2016-07-05T10:18:20.298Z,55
2016-07-05T10:19:20.273Z,55
2016-07-05T10:20:20.300Z,60
2016-07-05T10:21:20.323Z,65
2016-07-05T10:22:20.347Z,70
2016-07-05T10:23:20.982Z,65
2016-07-05T10:24:20.353Z,70
2016-07-05T10:25:20.358Z,70
2016-07-05T10:26:20.390Z,75
2016-07-05T10:27:21.011Z,75
2016-07-05T10:28:20.375Z,60
2016-07-05T10:29:20.414Z,70
2016-07-05T10:30:20.382Z,75
2016-07-05T10:31:20.378Z,60
2016-07-05T10:32:20.468Z,75
2016-07-05T10:33:20.416Z,50
2016-07-05T10:34:20.461Z,55
2016-07-05T10:35:20.431Z,60
2016-07-05T10:36:20.485Z,35
2016-07-05T10:37:20.479Z,55
2016-07-05T10:38:20.480Z,55
2016-07-05T10:39:21.072Z,45
2016-07-05T10:40:20.502Z,55
2016-07-05T10:41:20.508Z,70
2016-07-05T10:42:20.543Z,70
2016-07-05T10:43:20.533Z,70
2016-07-05T10:44:20.531Z,65
2016-07-05T10:45:20.545Z,60
2016-07-05T10:46:20.561Z,35
2016-07-05T10:47:20.547Z,30
2016-07-05T10:48:20.608Z,30
2016-07-05T10:49:20.578Z,35
2016-07-05T10:50:20.636Z,35
2016-07-05T10:51:20.619Z,40
2016-07-05T10:52:20.636Z,40
2016-07-05T10:53:20.624Z,35
2016-07-05T10:54:20.611Z,35
2016-07-05T10:55:20.632Z,45
2016-07-05T10:56:20.636Z,65
2016-07-05T10:57:20.656Z,70
2016-07-05T10:58:20.695Z,55
2016-07-05T10:59:20.690Z,40
2016-07-05T11:00:20.679Z,35
2016-07-05T11:01:20.723Z,35
2016-07-05T11:02:20.728Z,65
2016-07-05T11:03:20.753Z,60
2016-07-05T11:04:20.754Z,35
2016-07-05T11:05:20.752Z,70
2016-07-05T11:06:20.732Z,50
2016-07-05T11:07:21.383Z,65
2016-07-05T11:08:20.782Z,60
2016-07-05T11:09:20.793Z,30
2016-07-05T11:10:20.792Z,40
2016-07-05T11:11:20.787Z,25
2016-07-05T11:12:20.788Z,60
2016-07-05T11:13:20.851Z,65
2016-07-05T11:14:20.826Z,60
2016-07-05T11:15:20.853Z,60
2016-07-05T11:16:21.447Z,60
2016-07-05T11:17:20.858Z,25
2016-07-05T11:18:20.872Z,55
2016-07-05T11:19:20.875Z,60
2016-07-05T11:20:20.887Z,60
2016-07-05T11:21:20.876Z,60
2016-07-05T11:22:20.920Z,60
2016-07-05T11:23:20.900Z,60
2016-07-05T11:24:20.945Z,60
2016-07-05T11:25:20.924Z,55
2016-07-05T11:26:20.931Z,60
2016-07-05T11:27:20.969Z,60
2016-07-05T11:28:20.983Z,60
2016-07-05T11:29:20.953Z,60
2016-07-05T11:30:20.992Z,65
2016-07-05T11:31:20.977Z,30
2016-07-05T11:32:21.031Z,35
2016-07-05T11:33:21.052Z,35
2016-07-05T11:34:21.026Z,40
2016-07-05T11:35:21.050Z,40
2016-07-05T11:36:21.036Z,40
2016-07-05T11:37:21.040Z,40
2016-07-05T11:38:21.061Z,40
2016-07-05T11:39:21.078Z,40
2016-07-05T11:40:21.097Z,65
2016-07-05T11:41:21.101Z,65
2016-07-05T11:42:21.102Z,65
2016-07-05T11:43:21.102Z,65
2016-07-05T11:44:21.118Z,65
2016-07-05T11:45:21.137Z,30
2016-07-05T11:46:21.151Z,30
2016-07-05T11:47:21.130Z,35
2016-07-05T11:48:21.180Z,65
2016-07-05T11:49:21.190Z,65
2016-07-05T11:50:21.161Z,65
2016-07-05T11:51:21.191Z,40
2016-07-05T11:52:21.211Z,40
2016-07-05T11:53:21.227Z,60
2016-07-05T11:54:21.208Z,60
2016-07-05T11:55:21.210Z,60
2016-07-05T11:56:21.224Z,60
2016-07-05T11:57:21.236Z,60
2016-07-05T11:58:21.258Z,40
2016-07-05T11:59:21.293Z,35
2016-07-05T12:00:21.268Z,35
2016-07-05T12:01:21.265Z,65
2016-07-05T12:02:21.298Z,65
2016-07-05T12:03:21.320Z,65
2016-07-05T12:04:21.318Z,50
2016-07-05T12:05:21.318Z,60
2016-07-05T12:06:21.351Z,60
2016-07-05T12:07:21.329Z,65
2016-07-05T12:08:21.364Z,30
2016-07-05T12:09:21.368Z,35
2016-07-05T12:10:21.371Z,70
2016-07-05T12:11:21.979Z,65
2016-07-05T12:12:21.378Z,40
2016-07-05T12:13:21.428Z,40
2016-07-05T12:14:21.405Z,40
2016-07-05T12:15:21.427Z,65
2016-07-05T12:16:21.461Z,65
2016-07-05T12:17:21.440Z,65
2016-07-05T12:18:21.486Z,60
2016-07-05T12:19:21.468Z,35
2016-07-05T12:20:21.460Z,65
2016-07-05T12:21:21.450Z,35
2016-07-05T12:22:21.488Z,30
2016-07-05T12:23:21.522Z,60
2016-07-05T12:24:21.499Z,60
2016-07-05T12:25:22.133Z,55
2016-07-05T12:26:21.529Z,25
2016-07-05T12:27:21.573Z,55
2016-07-05T12:28:21.569Z,55
2016-07-05T12:29:21.558Z,55
2016-07-05T12:30:21.523Z,55
2016-07-05T12:31:21.589Z,50
2016-07-05T12:32:21.601Z,20
2016-07-05T12:33:21.584Z,25
2016-07-05T12:34:21.575Z,50
2016-07-05T12:35:21.630Z,25
2016-07-05T12:36:21.630Z,25
2016-07-05T12:37:21.623Z,55
2016-07-05T12:38:21.668Z,60
2016-07-05T12:39:21.645Z,55
2016-07-05T12:40:21.621Z,60
2016-07-05T12:41:21.620Z,60
2016-07-05T12:42:21.678Z,55
2016-07-05T12:43:21.701Z,55
2016-07-05T12:44:21.730Z,55
2016-07-05T12:45:21.755Z,55
2016-07-05T12:46:21.734Z,55
2016-07-05T12:47:21.739Z,55
2016-07-05T12:48:21.730Z,60
2016-07-05T12:49:22.358Z,40
2016-07-05T12:50:21.767Z,35
2016-07-05T12:51:21.754Z,35
2016-07-05T12:52:21.762Z,65
2016-07-05T12:53:21.809Z,65
2016-07-05T12:54:21.807Z,35
2016-07-05T12:55:21.816Z,50
2016-07-05T12:56:21.831Z,55
2016-07-05T12:57:21.829Z,55
2016-07-05T12:58:21.849Z,60
2016-07-05T12:59:21.859Z,55
2016-07-05T13:00:21.865Z,60
2016-07-05T13:01:21.856Z,60
2016-07-05T13:02:21.893Z,60
2016-07-05T13:03:21.913Z,45
2016-07-05T13:04:21.859Z,60
2016-07-05T13:05:21.938Z,60
2016-07-05T13:06:21.895Z,60
2016-07-05T13:07:21.934Z,60
2016-07-05T13:08:21.906Z,55
2016-07-05T13:09:21.938Z,55
2016-07-05T13:10:21.928Z,55
2016-07-05T13:11:21.976Z,50
2016-07-05T13:12:21.945Z,50
2016-07-05T13:13:21.975Z,55
2016-07-05T13:14:21.976Z,50
2016-07-05T13:15:21.995Z,50
2016-07-05T13:16:22.005Z,50
2016-07-05T13:17:22.016Z,40
2016-07-05T13:18:22.038Z,30
2016-07-05T13:19:22.015Z,20
2016-07-05T13:20:22.038Z,20
2016-07-05T13:21:22.060Z,35
2016-07-05T13:22:22.021Z,50
2016-07-05T13:23:22.095Z,50
2016-07-05T13:24:22.076Z,55
2016-07-05T13:25:22.166Z,55
2016-07-05T13:26:22.113Z,60
2016-07-05T13:27:22.122Z,55
2016-07-05T13:28:22.117Z,55
2016-07-05T13:29:22.147Z,55
2016-07-05T13:30:22.150Z,50
2016-07-05T13:31:22.166Z,50
2016-07-05T13:32:22.154Z,50
2016-07-05T13:33:22.163Z,50
2016-07-05T13:34:22.206Z,45
2016-07-05T13:35:22.189Z,55
2016-07-05T13:36:22.193Z,55
2016-07-05T13:37:22.221Z,55
2016-07-05T13:38:22.253Z,55
2016-07-05T13:39:22.229Z,55
2016-07-05T13:40:22.274Z,30
2016-07-05T13:41:22.261Z,50
2016-07-05T13:42:22.303Z,50
2016-07-05T13:43:22.268Z,50
2016-07-05T13:44:22.296Z,55
2016-07-05T13:45:22.306Z,55
2016-07-05T13:46:22.308Z,55
2016-07-05T13:47:22.309Z,55
2016-07-05T13:48:22.301Z,55
2016-07-05T13:49:22.375Z,30
2016-07-05T13:50:22.350Z,30
2016-07-05T13:51:22.366Z,55
2016-07-05T13:52:22.343Z,55
2016-07-05T13:53:22.364Z,60
2016-07-05T13:54:22.373Z,60
2016-07-05T13:55:22.417Z,65
2016-07-05T13:56:22.396Z,65
2016-07-05T13:57:22.389Z,60
2016-07-05T13:58:22.448Z,60
2016-07-05T13:59:22.456Z,60
2016-07-05T14:00:22.433Z,60
2016-07-05T14:01:22.466Z,60
2016-07-05T14:02:22.473Z,55
2016-07-05T14:03:22.489Z,55
2016-07-05T14:04:22.509Z,55
2016-07-05T14:05:22.503Z,40
2016-07-05T14:06:22.540Z,45
2016-07-05T14:07:22.540Z,45
2016-07-05T14:08:22.538Z,35
2016-07-05T14:09:22.551Z,35
2016-07-05T14:10:22.570Z,30
2016-07-05T14:11:22.566Z,35
2016-07-05T14:12:23.175Z,30
2016-07-05T14:13:22.602Z,40
2016-07-05T14:14:22.641Z,50
2016-07-05T14:15:22.602Z,50
2016-07-05T14:16:22.668Z,50
2016-07-05T14:17:23.276Z,45
2016-07-05T14:18:22.667Z,50
2016-07-05T14:19:22.682Z,50
2016-07-05T14:20:22.671Z,50
2016-07-05T14:21:22.651Z,50
2016-07-05T14:22:22.638Z,50
2016-07-05T14:23:22.693Z,50
2016-07-05T14:24:22.726Z,35